createdAt,value
2019-01-18T00:02:01.169Z,99053.25
2019-01-18T00:04:30.706Z,99049.81
2019-01-18T00:06:59.500Z,99040.36
2019-01-18T00:09:28.301Z,99050.39
2019-01-18T00:11:57.039Z,99062.98
2019-01-18T00:14:25.744Z,99071.25
2019-01-18T00:16:54.874Z,99062.85
2019-01-18T00:19:23.642Z,99060.28
2019-01-18T00:21:52.436Z,99060.28
2019-01-18T00:24:21.225Z,99064.25
2019-01-18T00:26:50.051Z,99075.34
2019-01-18T00:29:18.845Z,99067.25
2019-01-18T00:31:47.543Z,99075.30
2019-01-18T00:34:16.873Z,99086.26
2019-01-18T00:36:45.580Z,99086.31
2019-01-18T00:39:14.352Z,99088.04
2019-01-18T00:41:43.216Z,99085.73
2019-01-18T00:44:12.001Z,99088.54
2019-01-18T00:46:40.796Z,99092.84
2019-01-18T00:49:09.530Z,99091.95
2019-01-18T00:51:38.310Z,99079.97
2019-01-18T00:54:07.121Z,99082.89
2019-01-18T00:56:36.172Z,99085.70
2019-01-18T00:59:05.085Z,99085.26
2019-01-18T01:01:33.797Z,99089.23
2019-01-18T01:04:02.694Z,99092.77
2019-01-18T01:06:31.501Z,99094.84
2019-01-18T01:09:00.215Z,99097.00
2019-01-18T01:11:29.048Z,99106.22
2019-01-18T01:13:57.853Z,99105.52
2019-01-18T01:16:26.880Z,99109.84
2019-01-18T01:18:55.603Z,99109.44
2019-01-18T01:21:24.389Z,99110.38
2019-01-18T01:23:53.446Z,99123.75
2019-01-18T01:26:22.237Z,99116.56
2019-01-18T01:28:52.833Z,99123.71
2019-01-18T01:31:21.530Z,99125.70
2019-01-18T01:33:50.312Z,99130.23
2019-01-18T01:36:19.085Z,99134.72
2019-01-18T01:38:47.814Z,99138.50
2019-01-18T01:41:16.597Z,99141.88
2019-01-18T01:43:45.696Z,99142.06
2019-01-18T01:46:14.480Z,99135.08
2019-01-18T01:48:43.603Z,99143.48
2019-01-18T01:51:12.726Z,99145.03
2019-01-18T01:53:41.421Z,99148.19
2019-01-18T01:56:10.206Z,99149.76
2019-01-18T01:58:39.024Z,99146.91
2019-01-18T02:01:07.801Z,99155.63
2019-01-18T02:03:36.686Z,99160.45
2019-01-18T02:06:05.477Z,99162.48
2019-01-18T02:08:34.188Z,99161.30
2019-01-18T02:11:02.984Z,99162.55
2019-01-18T02:13:31.967Z,99163.92
2019-01-18T02:16:00.836Z,99162.40
2019-01-18T02:18:29.929Z,99158.70
2019-01-18T02:20:58.706Z,99160.27
2019-01-18T02:23:27.421Z,99165.41
2019-01-18T02:25:56.133Z,99170.24
2019-01-18T02:28:25.033Z,99169.09
2019-01-18T02:30:53.805Z,99180.19
2019-01-18T02:33:22.594Z,99179.45
2019-01-18T02:35:51.395Z,99182.78
2019-01-18T02:38:20.105Z,99187.62
2019-01-18T02:40:48.941Z,99186.57
2019-01-18T02:43:18.047Z,99187.82
2019-01-18T02:45:46.831Z,99190.55
2019-01-18T02:48:15.534Z,99187.52
2019-01-18T02:50:44.276Z,99195.08
2019-01-18T02:53:13.006Z,99196.00
2019-01-18T02:55:41.723Z,99194.84
2019-01-18T02:58:10.428Z,99197.66
2019-01-18T03:00:39.143Z,99195.36
2019-01-18T03:03:08.145Z,99203.13
2019-01-18T03:05:36.989Z,99217.33
2019-01-18T03:08:05.788Z,99215.20
2019-01-18T03:10:34.561Z,99222.05
2019-01-18T03:13:03.270Z,99227.30
2019-01-18T03:15:31.983Z,99226.67
2019-01-18T03:18:00.714Z,99220.95
2019-01-18T03:20:29.502Z,99225.15
2019-01-18T03:22:58.549Z,99233.78
2019-01-18T03:25:30.494Z,99233.82
2019-01-18T03:27:59.352Z,99235.12
2019-01-18T03:30:28.517Z,99227.49
2019-01-18T03:32:57.313Z,99221.34
2019-01-18T03:35:26.169Z,99225.49
2019-01-18T03:37:54.936Z,99229.67
2019-01-18T03:40:23.638Z,99227.81
2019-01-18T03:42:53.491Z,99228.31
2019-01-18T03:45:22.276Z,99225.92
2019-01-18T03:47:51.093Z,99230.48
2019-01-18T03:50:22.268Z,99236.82
2019-01-18T03:52:51.046Z,99240.92
2019-01-18T03:55:20.041Z,99245.59
2019-01-18T03:57:49.009Z,99252.20
2019-01-18T04:00:25.893Z,99264.02
2019-01-18T04:02:50.612Z,99256.95
2019-01-18T04:05:19.322Z,99266.98
2019-01-18T04:07:48.125Z,99265.72
2019-01-18T04:10:18.122Z,99270.55
2019-01-18T04:12:46.972Z,99278.41
2019-01-18T04:15:17.507Z,99285.28
2019-01-18T04:17:46.293Z,99280.92
2019-01-18T04:20:16.410Z,99288.16
2019-01-18T04:22:45.639Z,99287.13
2019-01-18T04:25:17.742Z,99288.83
2019-01-18T04:27:46.549Z,99290.33
2019-01-18T04:30:17.515Z,99293.19
2019-01-18T04:32:46.308Z,99289.92
2019-01-18T04:35:15.244Z,99288.53
2019-01-18T04:37:44.100Z,99287.85
2019-01-18T04:40:15.525Z,99287.41
2019-01-18T04:42:44.383Z,99293.02
2019-01-18T04:45:13.209Z,99288.05
2019-01-18T04:47:42.070Z,99287.33
2019-01-18T04:50:13.870Z,99286.33
2019-01-18T04:52:42.863Z,99282.39
2019-01-18T04:55:11.724Z,99295.61
2019-01-18T04:57:40.857Z,99297.39
2019-01-18T05:00:16.575Z,99301.97
2019-01-18T05:02:45.640Z,99293.63
2019-01-18T05:05:14.789Z,99294.43
2019-01-18T05:07:43.586Z,99291.92
2019-01-18T05:10:13.605Z,99294.43
2019-01-18T05:12:42.406Z,99294.80
2019-01-18T05:15:13.849Z,99295.16
2019-01-18T05:17:42.714Z,99295.16
2019-01-18T05:20:11.726Z,99300.20
2019-01-18T05:22:40.501Z,99301.27
2019-01-18T05:25:10.313Z,99300.08
2019-01-18T05:27:39.009Z,99300.80
2019-01-18T05:30:14.415Z,99307.08
2019-01-18T05:32:43.202Z,99302.09
2019-01-18T05:35:12.591Z,99300.80
2019-01-18T05:37:41.424Z,99315.13
2019-01-18T05:40:12.323Z,99318.18
2019-01-18T05:42:41.160Z,99316.20
2019-01-18T05:45:11.422Z,99324.21
2019-01-18T05:47:40.191Z,99331.03
2019-01-18T05:50:15.150Z,99339.28
2019-01-18T05:52:44.006Z,99332.46
2019-01-18T05:55:13.151Z,99328.44
2019-01-18T05:57:42.367Z,99329.39
2019-01-18T06:00:23.966Z,99345.53
2019-01-18T06:02:52.653Z,99346.48
2019-01-18T06:05:22.033Z,99351.25
2019-01-18T06:07:50.800Z,99364.98
2019-01-18T06:10:19.571Z,99364.02
2019-01-18T06:12:49.255Z,99370.52
2019-01-18T06:15:18.011Z,99365.24
2019-01-18T06:17:46.800Z,99366.00
2019-01-18T06:20:15.855Z,99372.15
2019-01-18T06:22:44.972Z,99374.77
2019-01-18T06:25:13.758Z,99376.40
2019-01-18T06:27:42.528Z,99378.92
2019-01-18T06:30:14.677Z,99378.55
2019-01-18T06:32:43.369Z,99382.90
2019-01-18T06:35:12.199Z,99382.41
2019-01-18T06:37:42.167Z,99387.19
2019-01-18T06:40:32.933Z,99389.80
2019-01-18T06:43:01.743Z,99384.22
2019-01-18T06:45:31.207Z,99388.59
2019-01-18T06:47:59.896Z,99386.48
2019-01-18T06:50:28.669Z,99381.50
2019-01-18T06:52:57.715Z,99385.78
2019-01-18T06:55:26.603Z,99388.38
2019-01-18T06:57:55.777Z,99390.69
2019-01-18T07:00:31.686Z,99393.23
2019-01-18T07:03:00.552Z,99396.06
2019-01-18T07:05:30.059Z,99391.04
2019-01-18T07:07:59.483Z,99394.17
2019-01-18T07:10:29.182Z,99394.73
2019-01-18T07:13:00.448Z,99400.54
2019-01-18T07:15:48.348Z,99404.45
2019-01-18T07:18:17.214Z,99409.23
2019-01-18T07:20:46.843Z,99417.44
2019-01-18T07:23:15.832Z,99420.39
2019-01-18T07:25:44.547Z,99424.64
2019-01-18T07:28:32.589Z,99424.38
2019-01-18T07:31:01.479Z,99429.23
2019-01-18T07:33:30.674Z,99429.70
2019-01-18T07:35:59.862Z,99435.70
2019-01-18T07:38:28.640Z,99439.59
2019-01-18T07:40:57.452Z,99450.29
2019-01-18T07:43:26.303Z,99447.05
2019-01-18T07:45:55.277Z,99450.09
2019-01-18T07:48:24.102Z,99445.39
2019-01-18T07:50:52.888Z,99444.67
2019-01-18T07:53:21.780Z,99454.32
2019-01-18T07:55:50.912Z,99468.38
2019-01-18T07:58:21.128Z,99481.70
2019-01-18T08:00:50.638Z,99480.75
2019-01-18T08:03:19.600Z,99482.02
2019-01-18T08:05:49.472Z,99484.20
2019-01-18T08:08:18.953Z,99484.59
2019-01-18T08:10:49.462Z,99488.41
2019-01-18T08:13:20.215Z,99493.50
2019-01-18T08:15:50.322Z,99493.62
2019-01-18T08:18:21.588Z,99504.91
2019-01-18T08:20:50.480Z,99507.27
2019-01-18T08:23:20.398Z,99505.10
2019-01-18T08:25:50.507Z,99508.78
2019-01-18T08:28:20.507Z,99515.14
2019-01-18T08:30:50.724Z,99514.59
2019-01-18T08:33:20.720Z,99520.16
2019-01-18T08:35:51.010Z,99523.28
2019-01-18T08:38:20.720Z,99528.33
2019-01-18T08:40:51.287Z,99532.80
2019-01-18T08:43:21.556Z,99536.20
2019-01-18T08:45:59.023Z,99540.84
2019-01-18T08:48:27.825Z,99539.25
2019-01-18T08:50:56.707Z,99543.56
2019-01-18T08:53:26.124Z,99544.75
2019-01-18T08:55:54.850Z,99541.31
2019-01-18T08:58:23.904Z,99540.70
2019-01-18T09:00:53.457Z,99538.09
2019-01-18T09:03:22.290Z,99549.37
2019-01-18T09:05:52.120Z,99546.68
2019-01-18T09:08:21.824Z,99550.63
2019-01-18T09:10:52.554Z,99550.16
2019-01-18T09:13:22.014Z,99545.81
2019-01-18T09:15:51.861Z,99555.05
2019-01-18T09:18:21.601Z,99556.75
2019-01-18T09:20:51.444Z,99560.09
2019-01-18T09:23:21.515Z,99560.86
2019-01-18T09:25:51.810Z,99559.50
2019-01-18T09:28:21.640Z,99558.45
2019-01-18T09:30:50.451Z,99557.89
2019-01-18T09:33:19.641Z,99560.58
2019-01-18T09:35:48.435Z,99563.53
2019-01-18T09:38:18.085Z,99558.87
2019-01-18T09:40:46.997Z,99570.02
2019-01-18T09:43:15.880Z,99566.39
2019-01-18T09:45:44.823Z,99568.57
2019-01-18T09:48:13.719Z,99563.53
2019-01-18T09:50:42.626Z,99568.43
2019-01-18T09:53:12.098Z,99570.66
2019-01-18T09:55:40.861Z,99577.88
2019-01-18T09:58:10.064Z,99574.42
2019-01-18T10:00:39.574Z,99577.83
2019-01-18T10:03:08.405Z,99578.98
2019-01-18T10:05:37.656Z,99580.48
2019-01-18T10:08:09.803Z,99580.48
2019-01-18T10:10:38.858Z,99583.02
2019-01-18T10:13:07.662Z,99583.02
2019-01-18T10:15:42.064Z,99582.11
2019-01-18T10:18:11.100Z,99582.11
2019-01-18T10:20:39.967Z,99582.97
2019-01-18T10:23:08.759Z,99578.37
2019-01-18T10:25:37.644Z,99580.18
2019-01-18T10:28:06.465Z,99580.85
2019-01-18T10:30:35.720Z,99579.38
2019-01-18T10:33:04.892Z,99578.12
2019-01-18T10:35:33.604Z,99581.93
2019-01-18T10:38:03.581Z,99577.11
2019-01-18T10:40:34.218Z,99579.16
2019-01-18T10:43:03.872Z,99576.36
2019-01-18T10:45:33.673Z,99576.28
2019-01-18T10:48:03.549Z,99575.16
2019-01-18T10:50:35.608Z,99578.89
2019-01-18T10:53:05.090Z,99574.80
2019-01-18T10:55:34.620Z,99578.91
2019-01-18T10:58:04.359Z,99580.78
2019-01-18T11:00:35.847Z,99575.37
2019-01-18T11:03:05.174Z,99580.28
2019-01-18T11:05:34.762Z,99577.00
2019-01-18T11:08:04.324Z,99586.03
2019-01-18T11:10:35.644Z,99581.45
2019-01-18T11:13:06.384Z,99571.84
2019-01-18T11:15:36.238Z,99574.25
2019-01-18T11:18:06.258Z,99575.33
2019-01-18T11:21:08.603Z,99580.72
2019-01-18T11:23:37.326Z,99583.73
2019-01-18T11:26:06.150Z,99572.63
2019-01-18T11:28:34.853Z,99573.98
2019-01-18T11:31:03.714Z,99569.39
2019-01-18T11:33:34.186Z,99568.92
2019-01-18T11:36:03.417Z,99572.92
2019-01-18T11:38:35.218Z,99574.34
2019-01-18T11:41:04.951Z,99574.39
2019-01-18T11:43:34.691Z,99568.47
2019-01-18T11:46:03.563Z,99562.91
2019-01-18T11:48:32.925Z,99560.55
2019-01-18T11:51:02.717Z,99557.78
2019-01-18T11:53:32.801Z,99558.67
2019-01-18T11:56:01.656Z,99551.72
2019-01-18T11:58:31.341Z,99560.22
2019-01-18T12:01:00.314Z,99552.03
2019-01-18T12:03:29.817Z,99549.38
2019-01-18T12:05:58.607Z,99545.16
2019-01-18T12:08:27.446Z,99543.34
2019-01-18T12:10:56.149Z,99544.70
2019-01-18T12:13:25.190Z,99542.94
2019-01-18T12:15:54.102Z,99549.28
2019-01-18T12:18:22.795Z,99546.88
2019-01-18T12:20:51.606Z,99546.22
2019-01-18T12:23:22.290Z,99541.45
2019-01-18T12:25:52.913Z,99545.94
2019-01-18T12:28:22.613Z,99546.75
2019-01-18T12:30:51.517Z,99547.91
2019-01-18T12:33:21.043Z,99537.23
2019-01-18T12:35:50.833Z,99534.53
2019-01-18T12:38:20.623Z,99546.19
2019-01-18T12:40:50.747Z,99534.94
2019-01-18T12:43:20.586Z,99538.02
2019-01-18T12:45:50.600Z,99540.22
2019-01-18T12:48:20.531Z,99533.30
2019-01-18T12:50:50.479Z,99532.44
2019-01-18T12:53:21.092Z,99531.30
2019-01-18T12:55:51.012Z,99531.62
2019-01-18T12:58:20.226Z,99525.73
2019-01-18T13:00:50.826Z,99521.32
2019-01-18T13:03:22.460Z,99518.22
2019-01-18T13:05:53.134Z,99513.47
2019-01-18T13:08:22.333Z,99508.83
2019-01-18T13:10:52.946Z,99512.83
2019-01-18T13:13:22.129Z,99510.47
2019-01-18T13:16:15.884Z,99509.87
2019-01-18T13:18:47.617Z,99496.64
2019-01-18T13:21:21.495Z,99501.17
2019-01-18T13:23:50.367Z,99493.91
2019-01-18T13:26:19.449Z,99490.73
2019-01-18T13:28:50.281Z,99489.98
2019-01-18T13:31:19.388Z,99494.42
2019-01-18T13:33:49.336Z,99497.73
2019-01-18T13:36:18.715Z,99491.61
2019-01-18T13:38:49.518Z,99494.81
2019-01-18T13:41:19.348Z,99494.81
2019-01-18T13:43:48.207Z,99498.77
2019-01-18T13:46:17.247Z,99502.78
2019-01-18T13:48:46.108Z,99505.39
2019-01-18T13:51:14.897Z,99499.54
2019-01-18T13:53:43.715Z,99497.75
2019-01-18T13:56:12.428Z,99498.64
2019-01-18T13:58:42.091Z,99499.22
2019-01-18T14:01:11.258Z,99502.58
2019-01-18T14:03:40.023Z,99502.42
2019-01-18T14:06:08.832Z,99510.17
2019-01-18T14:08:38.020Z,99501.42
2019-01-18T14:11:13.342Z,99499.05
2019-01-18T14:13:42.112Z,99500.30
2019-01-18T14:16:10.818Z,99510.08
2019-01-18T14:18:40.999Z,99509.08
2019-01-18T14:21:09.772Z,99512.13
2019-01-18T14:23:38.959Z,99500.73
2019-01-18T14:26:08.146Z,99501.08
2019-01-18T14:28:37.486Z,99494.13
2019-01-18T14:31:09.105Z,99500.56
2019-01-18T14:33:38.211Z,99494.38
2019-01-18T14:36:08.305Z,99495.64
2019-01-18T14:38:38.110Z,99498.52
2019-01-18T14:41:07.928Z,99493.11
2019-01-18T14:43:37.753Z,99491.80
2019-01-18T14:46:07.708Z,99498.30
2019-01-18T14:48:38.492Z,99499.02
2019-01-18T14:51:10.826Z,99500.40
2019-01-18T14:53:40.884Z,99499.13
2019-01-18T14:56:09.717Z,99497.19
2019-01-18T14:58:39.210Z,99501.17
2019-01-18T15:01:09.179Z,99501.17
2019-01-18T15:03:39.268Z,99496.11
2019-01-18T15:06:08.931Z,99499.36
2019-01-18T15:08:38.649Z,99497.71
2019-01-18T15:11:08.783Z,99493.86
2019-01-18T15:13:38.080Z,99498.37
2019-01-18T15:16:08.594Z,99497.08
2019-01-18T15:18:40.702Z,99493.34
2019-01-18T15:21:12.954Z,99491.52
2019-01-18T15:23:42.379Z,99488.70
2019-01-18T15:26:18.275Z,99491.32
2019-01-18T15:28:46.136Z,99493.28
2019-01-18T15:31:14.896Z,99489.34
2019-01-18T15:33:43.615Z,99486.06
2019-01-18T15:36:12.651Z,99485.94
2019-01-18T15:38:43.574Z,99490.12
2019-01-18T15:41:13.127Z,99490.80
2019-01-18T15:43:42.873Z,99490.19
2019-01-18T15:46:12.379Z,99485.68
2019-01-18T15:48:42.309Z,99494.00
2019-01-18T15:51:11.975Z,99483.30
2019-01-18T15:53:42.134Z,99481.27
2019-01-18T15:56:12.478Z,99481.89
2019-01-18T15:58:42.979Z,99485.61
2019-01-18T16:01:13.472Z,99483.91
2019-01-18T16:03:43.644Z,99480.69
2019-01-18T16:06:12.919Z,99481.80
2019-01-18T16:08:42.384Z,99477.72
2019-01-18T16:11:11.102Z,99471.77
2019-01-18T16:13:41.598Z,99473.34
2019-01-18T16:16:34.089Z,99472.31
2019-01-18T16:19:02.915Z,99473.10
2019-01-18T16:21:31.646Z,99469.13
2019-01-18T16:24:00.542Z,99469.13
2019-01-18T16:26:29.399Z,99462.73
2019-01-18T16:29:00.467Z,99462.73
2019-01-18T16:31:29.835Z,99463.30
2019-01-18T16:34:00.788Z,99465.55
2019-01-18T16:36:31.737Z,99463.81
2019-01-18T16:39:00.628Z,99465.34
2019-01-18T16:41:32.725Z,99466.28
2019-01-18T16:44:01.605Z,99464.97
2019-01-18T16:46:30.315Z,99459.91
2019-01-18T16:48:59.214Z,99460.05
2019-01-18T16:51:29.404Z,99455.81
2019-01-18T16:53:59.951Z,99454.19
2019-01-18T16:56:29.082Z,99451.65
2019-01-18T16:59:00.141Z,99453.48
2019-01-18T17:01:28.940Z,99457.09
2019-01-18T17:03:57.767Z,99449.02
2019-01-18T17:06:26.483Z,99448.19
2019-01-18T17:08:55.255Z,99456.59
2019-01-18T17:11:24.343Z,99446.73
2019-01-18T17:13:53.115Z,99449.99
2019-01-18T17:16:22.453Z,99451.39
2019-01-18T17:18:51.217Z,99452.28
2019-01-18T17:21:21.027Z,99444.94
2019-01-18T17:23:49.743Z,99448.94
2019-01-18T17:26:18.540Z,99446.02
2019-01-18T17:28:47.330Z,99443.97
2019-01-18T17:31:17.268Z,99447.58
2019-01-18T17:33:46.181Z,99442.41
2019-01-18T17:36:26.032Z,99446.65
2019-01-18T17:39:20.500Z,99445.55
2019-01-18T17:42:44.202Z,99441.38
2019-01-18T17:45:42.638Z,99445.33
2019-01-18T17:48:27.751Z,99438.56
2019-01-18T17:51:59.473Z,99434.37
2019-01-18T17:55:06.025Z,99436.58
2019-01-18T17:58:17.705Z,99445.86
2019-01-18T18:01:39.987Z,99448.59
2019-01-18T18:04:48.279Z,99442.16
2019-01-18T18:07:55.789Z,99448.48
2019-01-18T18:11:15.980Z,99444.97
2019-01-18T18:14:45.217Z,99443.17
2019-01-18T18:18:00.035Z,99441.59
2019-01-18T18:21:10.309Z,99442.88
2019-01-18T18:24:16.806Z,99438.56
2019-01-18T18:27:34.017Z,99443.05
2019-01-18T18:30:28.634Z,99440.03
2019-01-18T18:33:30.053Z,99440.50
2019-01-18T18:36:25.887Z,99445.31
2019-01-18T18:39:39.138Z,99444.33
2019-01-18T18:42:19.524Z,99436.20
2019-01-18T18:45:04.122Z,99435.39
2019-01-18T18:48:21.157Z,99441.05
2019-01-18T18:51:33.277Z,99438.16
2019-01-18T18:54:55.591Z,99438.59
2019-01-18T18:58:21.514Z,99432.98
2019-01-18T19:01:31.243Z,99427.78
2019-01-18T19:04:23.435Z,99423.78
2019-01-18T19:07:32.216Z,99428.06
2019-01-18T19:10:25.749Z,99427.64
2019-01-18T19:13:11.702Z,99425.46
2019-01-18T19:16:33.232Z,99429.36
2019-01-18T19:19:35.310Z,99429.31
2019-01-18T19:22:27.993Z,99422.16
2019-01-18T19:25:37.105Z,99424.84
2019-01-18T19:28:20.810Z,99423.97
2019-01-18T19:31:41.037Z,99419.23
2019-01-18T19:34:19.528Z,99417.06
2019-01-18T19:37:34.697Z,99416.55
2019-01-18T19:40:17.971Z,99414.84
2019-01-18T19:43:32.502Z,99414.91
2019-01-18T19:47:02.185Z,99412.41
2019-01-18T19:50:06.702Z,99415.04
2019-01-18T19:53:12.656Z,99405.16
2019-01-18T19:56:19.119Z,99403.86
2019-01-18T19:59:48.477Z,99407.73
2019-01-18T20:03:18.648Z,99412.70
2019-01-18T20:06:24.787Z,99407.22
2019-01-18T20:09:50.051Z,99418.96
2019-01-18T20:13:07.268Z,99413.48
2019-01-18T20:16:16.035Z,99420.17
2019-01-18T20:19:03.542Z,99420.80
2019-01-18T20:22:21.310Z,99417.00
2019-01-18T20:25:37.466Z,99413.87
2019-01-18T20:28:40.985Z,99412.96
2019-01-18T20:31:33.921Z,99409.52
2019-01-18T20:34:24.915Z,99416.91
2019-01-18T20:37:24.353Z,99420.51
2019-01-18T20:40:21.624Z,99413.05
2019-01-18T20:43:09.142Z,99422.19
2019-01-18T20:45:55.564Z,99422.80
2019-01-18T20:49:12.098Z,99425.17
2019-01-18T20:52:22.223Z,99424.03
2019-01-18T20:55:43.704Z,99425.77
2019-01-18T20:58:35.144Z,99423.81
2019-01-18T21:01:38.917Z,99423.84
2019-01-18T21:04:33.773Z,99424.38
2019-01-18T21:07:19.195Z,99418.83
2019-01-18T21:10:18.815Z,99427.28
2019-01-18T21:13:08.287Z,99421.69
2019-01-18T21:15:52.130Z,99426.08
2019-01-18T21:19:02.496Z,99425.65
2019-01-18T21:22:12.139Z,99426.08
2019-01-18T21:25:30.978Z,99429.37
2019-01-18T21:28:28.050Z,99428.02
2019-01-18T21:31:26.528Z,99428.86
2019-01-18T21:34:15.880Z,99432.72
2019-01-18T21:37:38.987Z,99424.64
2019-01-18T21:40:40.812Z,99430.68
2019-01-18T21:43:52.662Z,99427.35
2019-01-18T21:47:05.754Z,99422.70
2019-01-18T21:50:10.110Z,99423.66
2019-01-18T21:53:15.304Z,99422.80
2019-01-18T21:56:18.771Z,99420.16
2019-01-18T21:59:11.726Z,99427.09
2019-01-18T22:01:51.439Z,99418.51
2019-01-18T22:04:40.656Z,99421.95
2019-01-18T22:07:44.812Z,99426.28
2019-01-18T22:10:35.679Z,99423.77
2019-01-18T22:13:23.339Z,99426.45
2019-01-18T22:16:29.409Z,99421.76
2019-01-18T22:19:52.587Z,99421.33
2019-01-18T22:22:56.863Z,99422.17
2019-01-18T22:26:04.621Z,99420.85
2019-01-18T22:29:09.569Z,99422.08
2019-01-18T22:32:04.871Z,99417.42
2019-01-18T22:34:55.518Z,99422.13
2019-01-18T22:38:11.580Z,99420.41
2019-01-18T22:41:02.900Z,99416.54
2019-01-18T22:43:42.247Z,99416.95
2019-01-18T22:46:43.520Z,99421.31
2019-01-18T22:49:58.000Z,99419.08
2019-01-18T22:52:58.805Z,99415.19
2019-01-18T22:55:42.341Z,99417.38
2019-01-18T22:58:45.073Z,99416.13
2019-01-18T23:01:43.889Z,99406.58
2019-01-18T23:04:31.903Z,99412.70
2019-01-18T23:07:30.243Z,99403.62
2019-01-18T23:10:40.406Z,99404.03
2019-01-18T23:13:30.047Z,99401.52
2019-01-18T23:16:39.315Z,99395.70
2019-01-18T23:19:57.382Z,99398.70
2019-01-18T23:23:07.486Z,99397.47
2019-01-18T23:25:48.376Z,99385.79
2019-01-18T23:28:47.292Z,99390.06
2019-01-18T23:31:23.659Z,99388.83
2019-01-18T23:34:21.046Z,99388.83
2019-01-18T23:37:19.765Z,99387.07
2019-01-18T23:40:51.415Z,99390.48
2019-01-18T23:44:07.491Z,99392.61
2019-01-18T23:47:09.104Z,99384.84
2019-01-18T23:50:12.291Z,99391.74
2019-01-18T23:53:06.150Z,99386.12
2019-01-18T23:56:01.948Z,99380.10
2019-01-18T23:58:58.323Z,99389.17
